Time;durP1;ratioP1;P1;durP2;ratioP2;P2;SDS_P1;SDS_P2;PMS_P1;PMS_P2;Temp;Humidity;BMP_temperature;BMP_pressure;BME280_temperature;BME280_humidity;BME280_pressure;Samples;Min_cycle;Max_cycle;Signal;HPM_P1;HPM_P2
2023/12/28 00:00:20;;;;;;;10.70;5.45;;;10.70;92.10;;;;;;5072817;28;20051;-80
2023/12/28 00:02:46;;;;;;;9.50;5.38;;;10.70;92.10;;;;;;5074527;28;20036;-79
2023/12/28 00:05:12;;;;;;;14.25;5.43;;;10.70;92.30;;;;;;5075364;28;20029;-79
2023/12/28 00:07:38;;;;;;;10.18;5.10;;;10.70;92.30;;;;;;5059223;28;20037;-72
2023/12/28 00:10:04;;;;;;;7.82;4.22;;;10.70;92.30;;;;;;5040753;28;20512;-75
2023/12/28 00:12:29;;;;;;;8.15;4.28;;;10.70;92.40;;;;;;5059350;28;20040;-72
2023/12/28 00:14:55;;;;;;;8.50;4.65;;;10.80;92.30;;;;;;5053234;28;20051;-72
2023/12/28 00:17:21;;;;;;;7.82;4.38;;;10.80;92.40;;;;;;5055387;28;20040;-75
2023/12/28 00:19:46;;;;;;;9.43;4.75;;;10.80;92.30;;;;;;5056290;28;20029;-75
2023/12/28 00:22:12;;;;;;;7.47;4.07;;;10.80;92.40;;;;;;5053651;28;20021;-76
2023/12/28 00:24:37;;;;;;;7.07;4.10;;;10.80;92.40;;;;;;5053017;28;20024;-76
2023/12/28 00:27:03;;;;;;;8.25;4.22;;;10.70;92.50;;;;;;5058208;28;20093;-74
2023/12/28 00:29:29;;;;;;;9.38;4.22;;;10.80;92.50;;;;;;5058351;28;20037;-75
2023/12/28 00:31:55;;;;;;;7.50;4.18;;;10.70;92.50;;;;;;5060809;28;20045;-73
2023/12/28 00:34:21;;;;;;;10.02;4.22;;;10.70;92.60;;;;;;5056051;28;20059;-76
2023/12/28 00:36:46;;;;;;;9.70;3.95;;;10.70;92.50;;;;;;5038152;28;20033;-78
2023/12/28 00:39:12;;;;;;;8.82;4.00;;;10.80;92.60;;;;;;5032381;28;20087;-76
2023/12/28 00:41:38;;;;;;;9.30;4.05;;;10.70;92.50;;;;;;5056694;28;20177;-73
2023/12/28 00:44:05;;;;;;;9.40;4.90;;;10.70;92.40;;;;;;5052195;28;20186;-77
2023/12/28 00:46:30;;;;;;;8.00;4.28;;;10.70;92.50;;;;;;5041016;28;20056;-74
2023/12/28 00:48:56;;;;;;;10.55;4.30;;;10.70;92.60;;;;;;5055531;28;20461;-75
2023/12/28 00:51:21;;;;;;;10.30;4.40;;;10.70;92.60;;;;;;5060174;28;20721;-78
2023/12/28 00:53:47;;;;;;;10.77;4.10;;;10.70;92.50;;;;;;5054051;28;20440;-73
2023/12/28 00:56:13;;;;;;;8.35;4.25;;;10.70;92.60;;;;;;5059595;28;20032;-79
2023/12/28 00:58:43;;;;;;;8.60;4.32;;;10.70;92.60;;;;;;5052684;28;20548;-74
2023/12/28 01:01:09;;;;;;;9.80;4.40;;;10.70;92.40;;;;;;5056967;28;20485;-75
2023/12/28 01:03:35;;;;;;;7.93;4.18;;;10.60;92.70;;;;;;5051851;28;20669;-77
2023/12/28 01:06:00;;;;;;;10.35;4.45;;;10.70;92.70;;;;;;5058957;28;20021;-75
2023/12/28 01:08:26;;;;;;;6.93;4.20;;;10.60;92.70;;;;;;5055264;28;20103;-73
2023/12/28 01:10:52;;;;;;;8.40;4.43;;;10.70;92.80;;;;;;5054238;28;20469;-74
2023/12/28 01:13:17;;;;;;;10.93;4.60;;;10.70;92.70;;;;;;5054485;28;20029;-74
2023/12/28 01:15:44;;;;;;;9.10;4.82;;;10.60;92.90;;;;;;5057270;28;20556;-76
2023/12/28 01:18:09;;;;;;;8.65;4.43;;;10.60;93.00;;;;;;5037071;28;20036;-74
2023/12/28 01:20:35;;;;;;;8.88;4.75;;;10.60;93.00;;;;;;5053634;28;20543;-79
2023/12/28 01:23:01;;;;;;;9.07;4.35;;;10.60;92.90;;;;;;5055629;28;20419;-79
2023/12/28 01:25:27;;;;;;;8.70;4.40;;;10.60;93.10;;;;;;5054397;28;20029;-73
2023/12/28 01:27:52;;;;;;;8.35;4.53;;;10.50;93.20;;;;;;5054441;28;20036;-72
2023/12/28 01:30:18;;;;;;;8.38;4.78;;;10.60;93.30;;;;;;5035274;28;20489;-72
2023/12/28 01:32:44;;;;;;;11.45;5.03;;;10.50;93.40;;;;;;5055383;28;20097;-74
2023/12/28 01:35:10;;;;;;;8.68;4.53;;;10.60;93.30;;;;;;5055169;28;20045;-75
2023/12/28 01:37:35;;;;;;;10.15;4.78;;;10.60;93.20;;;;;;5053774;28;20111;-73
2023/12/28 01:40:02;;;;;;;9.50;4.57;;;10.70;93.10;;;;;;5037685;28;20040;-73
2023/12/28 01:42:30;;;;;;;10.73;4.65;;;10.70;93.00;;;;;;5040146;28;20020;-76
2023/12/28 01:44:56;;;;;;;7.72;4.28;;;10.70;92.90;;;;;;5040576;28;20036;-75
2023/12/28 01:47:21;;;;;;;7.65;4.15;;;10.70;92.90;;;;;;5054909;28;20153;-76
2023/12/28 01:49:47;;;;;;;8.60;4.57;;;10.70;93.00;;;;;;5056027;28;20899;-75
2023/12/28 01:52:13;;;;;;;8.80;4.70;;;10.70;92.90;;;;;;5049299;28;20040;-74
2023/12/28 01:54:39;;;;;;;9.52;5.10;;;10.60;92.90;;;;;;5053960;28;20035;-76
2023/12/28 01:57:05;;;;;;;7.97;4.82;;;10.60;93.10;;;;;;5058480;28;20028;-77
2023/12/28 01:59:32;;;;;;;8.57;4.68;;;10.60;93.00;;;;;;5045509;28;20033;-72
2023/12/28 02:01:58;;;;;;;10.90;4.38;;;10.60;93.10;;;;;;5057381;28;20033;-76
2023/12/28 02:04:28;;;;;;;12.05;4.80;;;10.60;93.10;;;;;;5049808;28;20150;-72
2023/12/28 02:06:59;;;;;;;9.85;5.00;;;10.60;93.10;;;;;;5056050;28;20072;-73
2023/12/28 02:09:25;;;;;;;10.93;5.13;;;10.60;93.00;;;;;;5051034;28;20367;-72
2023/12/28 02:11:51;;;;;;;8.18;4.57;;;10.50;93.00;;;;;;5057306;28;20021;-73
2023/12/28 02:14:17;;;;;;;9.10;4.63;;;10.50;93.00;;;;;;5051530;28;20033;-75
2023/12/28 02:16:49;;;;;;;8.85;4.57;;;10.50;93.00;;;;;;5055727;28;20545;-78
2023/12/28 02:19:26;;;;;;;9.98;4.57;;;10.40;93.10;;;;;;5054877;28;20671;-73
2023/12/28 02:21:53;;;;;;;10.10;4.32;;;10.50;93.20;;;;;;5061633;28;20036;-75
2023/12/28 02:24:19;;;;;;;8.27;3.90;;;10.50;93.10;;;;;;5057517;28;20116;-75
2023/12/28 02:26:45;;;;;;;8.48;4.32;;;10.50;93.00;;;;;;5062618;28;20131;-77
2023/12/28 02:29:10;;;;;;;10.07;3.75;;;10.50;93.00;;;;;;5064076;28;20047;-78
2023/12/28 02:31:44;;;;;;;7.95;3.80;;;10.50;93.00;;;;;;5056572;28;20052;-75
2023/12/28 02:34:16;;;;;;;11.30;4.18;;;10.50;93.00;;;;;;5065886;28;20036;-77
2023/12/28 02:36:44;;;;;;;8.40;3.72;;;10.40;93.00;;;;;;5070248;28;20043;-77
2023/12/28 02:39:14;;;;;;;9.45;4.22;;;10.40;92.90;;;;;;5065275;28;20033;-77
2023/12/28 02:41:40;;;;;;;7.93;4.00;;;10.40;93.00;;;;;;5067787;28;20079;-74
2023/12/28 02:44:06;;;;;;;9.07;3.97;;;10.40;93.00;;;;;;5070060;28;20479;-74
2023/12/28 02:46:31;;;;;;;9.95;5.00;;;10.40;93.10;;;;;;5047063;28;20140;-76
2023/12/28 02:48:59;;;;;;;8.77;4.00;;;10.40;93.20;;;;;;5063384;28;20064;-79
2023/12/28 02:51:25;;;;;;;10.50;4.55;;;10.40;93.20;;;;;;5068597;28;20066;-81
2023/12/28 02:53:50;;;;;;;9.60;4.47;;;10.40;93.30;;;;;;5069220;28;20025;-78
2023/12/28 02:56:16;;;;;;;8.85;3.92;;;10.30;93.30;;;;;;5066666;28;20090;-75
2023/12/28 02:58:42;;;;;;;8.25;3.70;;;10.40;93.40;;;;;;5050927;28;20025;-77
2023/12/28 03:01:07;;;;;;;11.85;4.03;;;10.40;93.40;;;;;;5055244;28;20029;-74
2023/12/28 03:03:33;;;;;;;12.05;4.20;;;10.40;93.30;;;;;;5052882;28;20037;-77
2023/12/28 03:05:58;;;;;;;12.23;4.78;;;10.40;93.30;;;;;;5054918;28;20576;-72
2023/12/28 03:08:24;;;;;;;11.27;3.95;;;10.30;93.20;;;;;;5056140;28;20048;-78
2023/12/28 03:10:50;;;;;;;14.23;4.97;;;10.30;93.20;;;;;;5049587;28;20036;-80
2023/12/28 03:13:15;;;;;;;10.40;4.90;;;10.30;93.20;;;;;;5053367;28;20638;-74
2023/12/28 03:15:41;;;;;;;10.15;4.25;;;10.40;93.00;;;;;;5049557;28;20131;-72
2023/12/28 03:18:07;;;;;;;11.85;4.28;;;10.40;92.90;;;;;;5038911;28;20036;-75
2023/12/28 03:20:33;;;;;;;10.35;4.10;;;10.30;92.90;;;;;;5053646;28;20044;-74
2023/12/28 03:22:58;;;;;;;9.27;4.05;;;10.30;92.90;;;;;;5051467;28;20389;-79
2023/12/28 03:25:24;;;;;;;9.88;4.07;;;10.20;92.90;;;;;;5053484;28;20399;-79
2023/12/28 03:27:49;;;;;;;10.50;3.95;;;10.20;92.90;;;;;;5052890;28;20044;-73
2023/12/28 03:30:15;;;;;;;7.63;3.47;;;10.20;92.80;;;;;;5049032;28;20036;-78
2023/12/28 03:32:41;;;;;;;10.45;4.25;;;10.20;92.90;;;;;;5054258;28;20037;-74
2023/12/28 03:35:07;;;;;;;12.43;4.45;;;10.20;92.80;;;;;;5050760;28;20064;-76
2023/12/28 03:37:33;;;;;;;11.95;3.80;;;10.30;92.80;;;;;;5036996;28;20068;-73
2023/12/28 03:39:58;;;;;;;11.27;3.60;;;10.40;92.70;;;;;;5054347;28;20075;-75
2023/12/28 03:42:24;;;;;;;11.57;3.75;;;10.40;92.50;;;;;;5057278;28;20090;-77
2023/12/28 03:44:49;;;;;;;10.90;3.55;;;10.40;92.30;;;;;;5058686;28;20082;-74
2023/12/28 03:47:15;;;;;;;9.60;3.47;;;10.40;92.00;;;;;;5059104;28;20032;-74
2023/12/28 03:49:41;;;;;;;12.52;3.90;;;10.50;91.80;;;;;;5053128;28;20082;-73
2023/12/28 03:52:06;;;;;;;12.65;3.60;;;10.60;91.40;;;;;;5058402;28;20029;-74
2023/12/28 03:54:32;;;;;;;14.10;4.47;;;10.60;91.10;;;;;;5054511;28;20047;-79
2023/12/28 03:56:57;;;;;;;11.65;4.07;;;10.60;90.80;;;;;;5059732;28;20113;-78
2023/12/28 03:59:23;;;;;;;10.38;3.35;;;10.60;90.60;;;;;;5053487;28;20023;-75
2023/12/28 04:01:48;;;;;;;12.63;3.28;;;10.70;90.30;;;;;;5053879;28;20033;-79
2023/12/28 04:04:14;;;;;;;13.63;3.30;;;10.60;90.20;;;;;;5054177;28;20070;-73
2023/12/28 04:06:42;;;;;;;13.40;3.55;;;10.70;90.00;;;;;;5054311;28;20044;-76
2023/12/28 04:09:07;;;;;;;13.38;3.97;;;10.70;89.80;;;;;;5048820;28;20127;-75
2023/12/28 04:11:33;;;;;;;14.18;3.65;;;10.80;89.60;;;;;;5057277;28;20607;-74
2023/12/28 04:14:01;;;;;;;11.13;3.10;;;10.70;89.60;;;;;;5056174;28;20031;-80
2023/12/28 04:16:26;;;;;;;9.93;3.53;;;10.70;89.60;;;;;;5054792;28;20068;-77
2023/12/28 04:18:52;;;;;;;11.45;3.13;;;10.60;89.70;;;;;;5052913;28;20446;-77
2023/12/28 04:21:18;;;;;;;14.27;3.70;;;10.60;89.90;;;;;;5053560;28;20029;-77
2023/12/28 04:23:44;;;;;;;10.60;3.78;;;10.50;90.10;;;;;;5057278;28;20511;-72
2023/12/28 04:26:09;;;;;;;13.18;3.03;;;10.50;90.30;;;;;;5050971;28;20037;-80
2023/12/28 04:28:35;;;;;;;11.38;3.58;;;10.50;90.50;;;;;;5055740;28;20629;-74
2023/12/28 04:31:05;;;;;;;16.55;3.40;;;10.50;90.50;;;;;;5059119;28;20123;-73
2023/12/28 04:33:31;;;;;;;12.98;3.85;;;10.40;90.60;;;;;;5051562;28;20142;-77
2023/12/28 04:35:57;;;;;;;12.27;3.60;;;10.50;90.60;;;;;;5057040;28;20029;-74
2023/12/28 04:38:23;;;;;;;13.95;3.95;;;10.50;90.60;;;;;;5053949;28;20044;-78
2023/12/28 04:40:48;;;;;;;12.20;3.03;;;10.50;90.70;;;;;;5056112;28;20036;-77
2023/12/28 04:43:14;;;;;;;11.25;3.80;;;10.60;90.60;;;;;;5055699;28;20735;-75
2023/12/28 04:45:40;;;;;;;12.98;3.53;;;10.60;90.50;;;;;;5053146;28;20032;-76
2023/12/28 04:48:05;;;;;;;15.93;4.18;;;10.60;90.40;;;;;;5057429;28;20052;-80
2023/12/28 04:50:31;;;;;;;13.68;3.75;;;10.60;90.30;;;;;;5052151;28;20413;-74
2023/12/28 04:52:57;;;;;;;12.20;4.18;;;10.60;90.30;;;;;;5067426;28;20039;-76
2023/12/28 04:55:24;;;;;;;11.75;3.53;;;10.60;90.30;;;;;;5074950;28;20548;-79
2023/12/28 04:57:49;;;;;;;11.93;3.67;;;10.60;90.30;;;;;;5075262;28;20082;-77
2023/12/28 05:00:15;;;;;;;13.80;3.58;;;10.60;90.50;;;;;;5064613;28;20033;-79
2023/12/28 05:02:41;;;;;;;15.52;4.20;;;10.50;90.40;;;;;;5056836;28;20083;-74
2023/12/28 05:05:09;;;;;;;12.68;3.63;;;10.40;90.50;;;;;;5041283;28;20036;-77
2023/12/28 05:07:34;;;;;;;13.88;3.60;;;10.40;90.70;;;;;;5058979;28;20268;-79
2023/12/28 05:10:00;;;;;;;18.98;4.28;;;10.40;90.90;;;;;;5060697;28;20485;-74
2023/12/28 05:12:26;;;;;;;15.60;5.10;;;10.40;90.90;;;;;;5046976;28;20024;-76
2023/12/28 05:14:51;;;;;;;13.50;3.50;;;10.40;90.80;;;;;;5056955;28;20040;-74
2023/12/28 05:17:17;;;;;;;14.73;3.78;;;10.40;90.80;;;;;;5055921;28;20094;-76
2023/12/28 05:19:43;;;;;;;13.20;3.97;;;10.40;90.80;;;;;;5057716;28;20115;-77
2023/12/28 05:22:10;;;;;;;15.77;3.65;;;10.40;90.70;;;;;;5056738;28;20061;-73
2023/12/28 05:24:36;;;;;;;17.50;4.32;;;10.30;90.80;;;;;;5059164;28;20040;-73
2023/12/28 05:27:02;;;;;;;14.82;3.25;;;10.30;90.80;;;;;;5054493;28;20035;-78
2023/12/28 05:29:28;;;;;;;11.45;2.80;;;10.30;90.60;;;;;;5057930;28;20037;-80
2023/12/28 05:31:53;;;;;;;13.52;4.18;;;10.30;90.50;;;;;;5051682;28;20419;-73
2023/12/28 05:34:19;;;;;;;12.23;3.25;;;10.40;90.30;;;;;;5054255;28;20507;-79
2023/12/28 05:36:45;;;;;;;16.55;3.92;;;10.40;90.40;;;;;;5054944;28;20033;-74
2023/12/28 05:39:13;;;;;;;17.13;4.05;;;10.30;90.40;;;;;;5053948;28;20046;-77
2023/12/28 05:41:39;;;;;;;15.00;3.17;;;10.30;90.40;;;;;;5048736;28;20170;-75
2023/12/28 05:44:05;;;;;;;18.67;3.80;;;10.20;90.50;;;;;;5054010;28;20724;-74
2023/12/28 05:46:31;;;;;;;18.45;4.57;;;10.20;90.50;;;;;;5055593;28;20032;-79
2023/12/28 05:48:56;;;;;;;13.88;3.80;;;10.20;90.50;;;;;;5050250;28;20098;-75
2023/12/28 05:51:22;;;;;;;13.30;2.95;;;10.20;90.60;;;;;;5055838;28;20048;-74
2023/12/28 05:53:47;;;;;;;15.15;3.40;;;10.10;90.60;;;;;;5055255;28;20640;-72
2023/12/28 05:56:13;;;;;;;16.77;3.83;;;10.10;90.70;;;;;;5055725;28;20017;-75
2023/12/28 05:58:39;;;;;;;23.00;4.25;;;10.10;90.70;;;;;;5054224;28;20033;-76
2023/12/28 06:01:05;;;;;;;15.30;4.38;;;10.10;91.00;;;;;;5054357;28;20685;-80
2023/12/28 06:03:31;;;;;;;13.45;3.80;;;10.00;91.00;;;;;;5038258;28;20413;-75
2023/12/28 06:05:57;;;;;;;23.92;3.83;;;9.90;91.10;;;;;;5031327;28;20030;-79
2023/12/28 06:08:23;;;;;;;17.73;3.28;;;10.00;91.00;;;;;;5055672;28;20452;-74
2023/12/28 06:10:49;;;;;;;14.82;3.58;;;9.90;91.00;;;;;;5049956;28;20093;-75
2023/12/28 06:13:14;;;;;;;18.63;4.68;;;9.90;91.00;;;;;;5058292;28;20024;-75
2023/12/28 06:15:40;;;;;;;14.80;3.78;;;9.90;91.20;;;;;;5062447;28;20036;-74
2023/12/28 06:18:06;;;;;;;16.52;4.00;;;9.90;91.10;;;;;;5057020;28;20325;-75
2023/12/28 06:20:32;;;;;;;15.93;3.65;;;9.90;91.10;;;;;;5060903;28;20028;-73
2023/12/28 06:22:57;;;;;;;18.60;4.82;;;9.90;91.20;;;;;;5057693;28;20029;-76
2023/12/28 06:25:24;;;;;;;16.25;4.05;;;9.80;91.20;;;;;;5039526;28;20109;-81
2023/12/28 06:27:49;;;;;;;17.17;3.90;;;9.80;91.20;;;;;;5053170;28;20048;-78
2023/12/28 06:30:15;;;;;;;13.00;3.75;;;9.80;91.20;;;;;;5050394;28;20068;-74
2023/12/28 06:32:41;;;;;;;18.98;4.93;;;9.80;91.30;;;;;;5054241;28;20037;-73
2023/12/28 06:35:07;;;;;;;16.08;3.45;;;9.80;91.40;;;;;;5055244;28;20037;-79
2023/12/28 06:37:32;;;;;;;17.73;3.58;;;9.80;91.40;;;;;;5053524;28;20024;-78
2023/12/28 06:39:58;;;;;;;19.13;4.50;;;9.80;91.20;;;;;;5039684;28;20037;-73
2023/12/28 06:42:24;;;;;;;17.13;3.72;;;9.80;91.20;;;;;;5037089;28;20021;-72
2023/12/28 06:44:49;;;;;;;19.17;4.40;;;9.80;91.20;;;;;;5036453;28;20155;-74
2023/12/28 06:47:15;;;;;;;18.20;4.50;;;9.80;91.00;;;;;;5036814;28;20400;-74
2023/12/28 06:49:40;;;;;;;21.90;4.22;;;9.90;91.00;;;;;;5051104;28;20032;-75
2023/12/28 06:52:06;;;;;;;15.00;3.65;;;9.90;91.10;;;;;;5056417;28;20528;-73
2023/12/28 06:54:32;;;;;;;18.55;4.32;;;10.00;90.80;;;;;;5051280;28;20029;-74
2023/12/28 06:56:57;;;;;;;19.77;4.28;;;10.00;90.80;;;;;;5055269;28;20025;-77
2023/12/28 06:59:23;;;;;;;21.35;5.28;;;10.10;90.70;;;;;;5049805;28;20317;-73
2023/12/28 07:01:49;;;;;;;16.40;3.58;;;10.10;90.40;;;;;;5050360;28;20043;-75
2023/12/28 07:04:15;;;;;;;15.82;3.95;;;10.20;90.10;;;;;;5050898;28;20765;-73
2023/12/28 07:06:41;;;;;;;21.00;4.13;;;10.20;89.90;;;;;;5055791;28;20041;-74
2023/12/28 07:09:06;;;;;;;17.83;4.25;;;10.10;89.70;;;;;;5048468;28;20048;-77
2023/12/28 07:11:32;;;;;;;21.23;4.18;;;10.10;89.70;;;;;;5055567;28;20621;-74
2023/12/28 07:13:57;;;;;;;18.27;4.35;;;10.10;89.90;;;;;;5052807;28;20520;-75
2023/12/28 07:16:23;;;;;;;17.67;3.92;;;10.10;89.80;;;;;;5055643;28;20072;-76
2023/12/28 07:18:49;;;;;;;21.65;4.18;;;10.10;89.80;;;;;;5056161;28;20537;-78
2023/12/28 07:21:14;;;;;;;18.65;3.90;;;10.10;89.80;;;;;;5056119;28;20037;-73
2023/12/28 07:23:40;;;;;;;17.50;3.55;;;10.10;89.80;;;;;;5054264;28;20035;-73
2023/12/28 07:26:06;;;;;;;20.13;4.00;;;10.10;89.80;;;;;;5054791;28;20096;-74
2023/12/28 07:28:31;;;;;;;18.75;3.75;;;10.10;89.70;;;;;;5040152;28;20079;-76
2023/12/28 07:30:57;;;;;;;16.13;3.65;;;10.10;89.80;;;;;;5057329;28;20360;-74
2023/12/28 07:33:23;;;;;;;16.08;3.72;;;10.10;89.90;;;;;;5057171;28;20519;-74
2023/12/28 07:35:48;;;;;;;19.13;3.65;;;10.10;90.00;;;;;;5037032;28;20398;-78
2023/12/28 07:38:15;;;;;;;21.95;4.43;;;9.90;90.00;;;;;;5052883;28;20040;-72
2023/12/28 07:40:40;;;;;;;17.33;4.25;;;9.90;90.10;;;;;;5056754;28;20025;-74
2023/12/28 07:43:06;;;;;;;20.00;4.97;;;9.90;90.00;;;;;;5051572;28;20071;-73
2023/12/28 07:45:32;;;;;;;15.77;3.95;;;10.00;89.80;;;;;;5058212;28;20025;-75
2023/12/28 07:47:59;;;;;;;23.67;4.28;;;10.00;89.80;;;;;;5052704;28;20127;-81
2023/12/28 07:50:24;;;;;;;14.38;3.67;;;9.90;89.80;;;;;;5056015;28;20473;-73
2023/12/28 07:52:50;;;;;;;20.50;4.57;;;9.90;89.80;;;;;;5051638;28;20126;-79
2023/12/28 07:55:16;;;;;;;19.00;5.75;;;9.90;89.80;;;;;;5057386;28;20044;-77
2023/12/28 07:57:42;;;;;;;21.13;4.28;;;9.90;89.80;;;;;;5052878;28;20665;-79
2023/12/28 08:00:09;;;;;;;17.63;3.88;;;9.90;89.80;;;;;;5054632;28;20128;-77
2023/12/28 08:02:34;;;;;;;24.00;4.78;;;10.00;89.70;;;;;;5056452;28;20032;-73
2023/12/28 08:05:00;;;;;;;16.50;3.92;;;10.00;89.80;;;;;;5055031;28;20044;-76
2023/12/28 08:07:25;;;;;;;22.70;4.70;;;10.00;89.80;;;;;;5055539;28;20037;-77
2023/12/28 08:09:51;;;;;;;18.48;4.40;;;10.00;89.80;;;;;;5053440;28;20591;-78
2023/12/28 08:12:17;;;;;;;16.65;3.95;;;10.00;90.00;;;;;;5053052;28;20062;-76
2023/12/28 08:14:43;;;;;;;18.73;4.00;;;9.90;90.00;;;;;;5055955;28;20025;-74
2023/12/28 08:17:09;;;;;;;16.02;3.78;;;10.00;90.10;;;;;;5051464;28;20032;-75
2023/12/28 08:19:35;;;;;;;16.52;3.58;;;10.00;90.10;;;;;;5054953;28;20029;-79
2023/12/28 08:22:00;;;;;;;16.15;4.05;;;10.00;90.20;;;;;;5049261;28;20087;-80
2023/12/28 08:24:26;;;;;;;20.75;4.07;;;10.10;90.20;;;;;;5056613;28;20580;-79
2023/12/28 08:26:52;;;;;;;18.05;4.05;;;10.10;90.10;;;;;;5049909;28;20073;-81
2023/12/28 08:29:18;;;;;;;21.83;4.38;;;10.20;90.00;;;;;;5053198;28;20091;-74
2023/12/28 08:31:44;;;;;;;18.85;4.32;;;10.30;89.70;;;;;;5049771;28;20072;-72
2023/12/28 08:34:09;;;;;;;23.83;4.35;;;10.40;89.40;;;;;;5052143;28;20098;-76
2023/12/28 08:36:35;;;;;;;16.92;4.13;;;10.50;89.30;;;;;;5052238;28;20036;-75
2023/12/28 08:39:01;;;;;;;21.27;4.53;;;10.50;89.10;;;;;;5053047;28;20518;-79
2023/12/28 08:41:26;;;;;;;23.15;5.07;;;10.50;89.10;;;;;;5054968;28;20511;-79
2023/12/28 08:43:54;;;;;;;19.85;4.13;;;10.60;89.10;;;;;;5056120;28;20039;-72
2023/12/28 08:46:20;;;;;;;17.42;4.57;;;10.60;89.00;;;;;;5036179;28;20064;-76
2023/12/28 08:48:46;;;;;;;17.60;3.42;;;10.60;88.80;;;;;;5048485;28;20037;-76
2023/12/28 08:51:11;;;;;;;20.98;4.72;;;10.60;88.90;;;;;;5054010;28;20041;-73
2023/12/28 08:53:37;;;;;;;21.08;4.05;;;10.60;88.90;;;;;;5050170;28;20055;-74
2023/12/28 08:56:12;;;;;;;18.70;4.97;;;10.50;88.90;;;;;;5053863;28;20039;-77
2023/12/28 08:58:38;;;;;;;16.08;3.10;;;10.60;89.10;;;;;;5051588;28;20423;-77
2023/12/28 09:01:04;;;;;;;17.65;3.58;;;10.60;89.00;;;;;;5033578;28;20044;-81
2023/12/28 09:03:29;;;;;;;19.75;3.75;;;10.60;88.90;;;;;;5055088;28;20025;-74
2023/12/28 09:05:55;;;;;;;18.95;4.70;;;10.60;88.70;;;;;;5051510;28;20128;-76
2023/12/28 09:08:20;;;;;;;18.80;4.18;;;10.70;88.70;;;;;;5046548;28;20127;-77
2023/12/28 09:10:46;;;;;;;19.33;3.95;;;10.70;88.60;;;;;;5056625;28;20029;-75
2023/12/28 09:13:16;;;;;;;17.77;3.88;;;10.70;88.30;;;;;;5054814;28;20424;-78
2023/12/28 09:15:42;;;;;;;16.60;3.83;;;10.70;88.30;;;;;;5056190;28;20079;-75
2023/12/28 09:18:08;;;;;;;17.35;4.25;;;10.80;88.20;;;;;;5044204;28;20550;-76
2023/12/28 09:20:35;;;;;;;17.80;4.35;;;10.80;88.10;;;;;;5057289;28;20147;-76
2023/12/28 09:23:01;;;;;;;22.17;4.53;;;10.80;88.10;;;;;;5053948;28;20032;-75
2023/12/28 09:25:26;;;;;;;24.05;5.05;;;10.80;88.10;;;;;;5053993;28;20044;-72
2023/12/28 09:27:53;;;;;;;23.70;5.25;;;10.80;88.10;;;;;;5054694;28;20033;-78
2023/12/28 09:30:19;;;;;;;22.23;5.53;;;10.80;88.10;;;;;;5055739;28;20218;-72
2023/12/28 09:32:44;;;;;;;17.25;3.92;;;10.80;88.20;;;;;;5055379;28;20032;-76
2023/12/28 09:35:10;;;;;;;17.00;3.78;;;10.80;88.10;;;;;;5053659;28;20344;-77
2023/12/28 09:37:36;;;;;;;20.42;4.15;;;10.80;88.00;;;;;;5057181;28;20044;-73
2023/12/28 09:40:01;;;;;;;24.90;4.53;;;10.80;88.00;;;;;;5058506;28;20119;-81
2023/12/28 09:42:32;;;;;;;17.98;3.90;;;10.90;88.00;;;;;;5054742;28;20138;-79
2023/12/28 09:44:57;;;;;;;19.90;4.32;;;10.90;88.00;;;;;;5059866;28;20119;-73
2023/12/28 09:47:24;;;;;;;22.73;4.22;;;10.90;87.80;;;;;;5060178;28;20028;-82
2023/12/28 09:49:50;;;;;;;22.67;5.55;;;11.00;87.90;;;;;;5077776;28;20036;-83
2023/12/28 09:52:15;;;;;;;19.63;4.72;;;11.10;87.70;;;;;;5077981;28;20032;-79
2023/12/28 09:54:41;;;;;;;22.20;4.65;;;11.10;87.50;;;;;;5073667;28;20183;-76
2023/12/28 09:57:07;;;;;;;20.98;4.70;;;11.20;87.20;;;;;;5056996;28;20036;-74
2023/12/28 09:59:33;;;;;;;17.98;4.30;;;11.20;87.00;;;;;;5054872;28;20712;-75
2023/12/28 10:02:01;;;;;;;23.00;4.63;;;11.20;87.00;;;;;;5056498;28;20025;-77
2023/12/28 10:04:29;;;;;;;19.90;4.10;;;11.30;87.00;;;;;;5057985;28;20031;-73
2023/12/28 10:06:54;;;;;;;19.05;4.13;;;11.40;86.80;;;;;;5057526;28;20048;-79
2023/12/28 10:09:21;;;;;;;20.27;4.22;;;11.40;86.70;;;;;;5051744;28;20032;-74
2023/12/28 10:11:47;;;;;;;17.75;4.18;;;11.50;86.70;;;;;;5050552;28;20028;-73
2023/12/28 10:14:13;;;;;;;17.90;4.38;;;11.50;86.30;;;;;;5051704;28;20180;-74
2023/12/28 10:16:42;;;;;;;17.75;4.10;;;11.60;86.00;;;;;;5048336;28;20079;-72
2023/12/28 10:19:07;;;;;;;23.38;5.30;;;11.60;85.80;;;;;;5057394;28;20245;-75
2023/12/28 10:21:34;;;;;;;21.13;5.55;;;11.70;85.70;;;;;;5056651;28;20036;-73
2023/12/28 10:23:59;;;;;;;18.73;4.95;;;11.60;86.00;;;;;;5053137;28;20185;-75
2023/12/28 10:26:25;;;;;;;22.75;6.10;;;11.60;85.90;;;;;;5053208;28;20115;-75
2023/12/28 10:29:00;;;;;;;21.40;6.22;;;11.60;85.80;;;;;;5047090;28;20941;-76
2023/12/28 10:31:26;;;;;;;25.30;7.72;;;11.60;85.60;;;;;;5035774;28;20131;-75
2023/12/28 10:33:52;;;;;;;25.65;7.75;;;11.60;85.60;;;;;;5053505;28;20055;-76
2023/12/28 10:36:19;;;;;;;18.92;4.82;;;11.80;85.40;;;;;;5049668;28;20649;-76
2023/12/28 10:38:47;;;;;;;23.60;6.18;;;11.80;85.30;;;;;;5032273;28;20028;-73
2023/12/28 10:41:14;;;;;;;17.38;5.10;;;11.80;85.20;;;;;;5051649;28;20051;-73
2023/12/28 10:44:03;;;;;;;23.85;6.35;;;11.70;85.00;;;;;;5049142;28;20500;-74
2023/12/28 10:46:32;;;;;;;22.05;5.28;;;11.70;85.10;;;;;;5054632;28;20808;-76
2023/12/28 10:49:09;;;;;;;22.85;6.93;;;11.70;85.20;;;;;;5055579;28;20048;-74
2023/12/28 10:51:36;;;;;;;26.58;7.57;;;11.70;85.20;;;;;;5051839;28;20068;-75
2023/12/28 10:54:44;;;;;;;23.63;5.80;;;11.80;85.10;;;;;;5050299;28;20040;-74
2023/12/28 10:57:33;;;;;;;24.77;6.30;;;11.80;84.80;;;;;;5056162;28;20044;-75
2023/12/28 11:00:22;;;;;;;34.88;5.82;;;11.90;84.60;;;;;;5051085;28;20029;-79
2023/12/28 11:02:56;;;;;;;19.10;4.90;;;11.90;84.70;;;;;;5051934;28;20470;-73
2023/12/28 11:05:23;;;;;;;19.70;4.57;;;11.90;84.70;;;;;;5050193;28;20032;-75
2023/12/28 11:07:53;;;;;;;37.00;12.27;;;12.00;84.60;;;;;;5057432;28;20415;-77
2023/12/28 11:10:23;;;;;;;34.25;14.77;;;12.00;84.30;;;;;;5048850;28;20087;-75
2023/12/28 11:12:50;;;;;;;46.88;22.90;;;12.00;84.30;;;;;;5054990;28;20819;-74
2023/12/28 11:15:16;;;;;;;43.28;21.42;;;12.10;84.40;;;;;;5051849;28;20056;-74
2023/12/28 11:17:43;;;;;;;35.72;14.40;;;12.00;83.90;;;;;;5053775;28;20512;-73
2023/12/28 11:20:10;;;;;;;22.33;8.73;;;12.10;83.90;;;;;;5047091;28;20120;-74
2023/12/28 11:22:36;;;;;;;23.80;6.07;;;12.10;83.60;;;;;;5056834;28;20481;-75
2023/12/28 11:25:03;;;;;;;23.08;5.18;;;12.10;83.40;;;;;;5038027;28;20477;-78
2023/12/28 11:27:36;;;;;;;22.08;6.15;;;12.10;83.50;;;;;;5052085;28;20049;-74
2023/12/28 11:30:04;;;;;;;23.42;5.07;;;12.30;83.70;;;;;;5043294;28;20513;-77
2023/12/28 11:32:35;;;;;;;23.70;5.65;;;12.30;83.30;;;;;;5045695;28;20059;-77
2023/12/28 11:35:01;;;;;;;22.92;4.93;;;12.30;83.20;;;;;;5054121;28;20037;-77
2023/12/28 11:37:29;;;;;;;26.30;5.75;;;12.40;83.30;;;;;;5050968;28;20033;-78
2023/12/28 11:39:57;;;;;;;22.05;5.03;;;12.40;82.70;;;;;;5043600;28;20075;-80
2023/12/28 11:42:23;;;;;;;19.70;5.13;;;12.50;82.80;;;;;;5044493;28;20032;-74
2023/12/28 11:44:54;;;;;;;20.77;5.25;;;12.50;82.50;;;;;;5043141;28;20024;-73
2023/12/28 11:47:25;;;;;;;20.02;4.55;;;12.60;82.40;;;;;;5045091;28;20086;-76
2023/12/28 11:49:54;;;;;;;22.13;5.28;;;12.60;82.10;;;;;;5051538;28;20673;-78
2023/12/28 11:52:30;;;;;;;24.08;5.68;;;12.50;82.30;;;;;;5049622;28;20028;-76
2023/12/28 11:54:55;;;;;;;22.42;4.60;;;12.60;82.40;;;;;;5047518;28;20102;-77
2023/12/28 11:57:22;;;;;;;17.02;4.90;;;12.60;82.00;;;;;;5036605;28;20132;-78
2023/12/28 11:59:53;;;;;;;24.50;5.85;;;12.50;82.20;;;;;;5045525;28;20823;-78
2023/12/28 12:02:19;;;;;;;21.33;4.50;;;12.50;82.20;;;;;;5049864;28;20066;-73
2023/12/28 12:04:45;;;;;;;20.58;4.15;;;12.60;82.30;;;;;;5049256;28;20086;-79
2023/12/28 12:07:10;;;;;;;14.90;5.05;;;12.60;81.90;;;;;;5046115;28;20655;-75
2023/12/28 12:09:36;;;;;;;19.27;4.53;;;12.60;81.80;;;;;;5046007;28;20023;-81
2023/12/28 12:12:02;;;;;;;19.75;4.57;;;12.60;81.30;;;;;;5048609;28;20127;-79
2023/12/28 12:14:29;;;;;;;15.55;4.40;;;12.60;81.60;;;;;;5027217;28;20029;-78
2023/12/28 12:17:01;;;;;;;18.70;4.95;;;12.60;81.50;;;;;;5044649;28;20111;-76
2023/12/28 12:19:27;;;;;;;22.10;4.97;;;12.60;81.70;;;;;;5035821;28;20385;-75
2023/12/28 12:21:54;;;;;;;23.55;4.65;;;12.60;81.60;;;;;;5048720;28;20037;-74
2023/12/28 12:24:20;;;;;;;24.30;4.93;;;12.60;81.40;;;;;;5044495;28;20053;-74
2023/12/28 12:26:46;;;;;;;16.55;4.53;;;12.60;81.60;;;;;;5046445;28;20045;-77
2023/12/28 12:29:14;;;;;;;17.48;3.88;;;12.60;81.80;;;;;;5045349;28;20072;-74
2023/12/28 12:31:41;;;;;;;19.45;4.05;;;12.60;81.40;;;;;;5046510;28;20061;-72
2023/12/28 12:34:10;;;;;;;19.60;4.72;;;12.60;81.00;;;;;;5058068;28;20033;-73
2023/12/28 12:36:37;;;;;;;17.17;3.88;;;12.60;80.60;;;;;;5053905;28;20035;-73